Time;durP1;ratioP1;P1;durP2;ratioP2;P2;SDS_P1;SDS_P2;PMS_P1;PMS_P2;Temp;Humidity;BMP_temperature;BMP_pressure;BME280_temperature;BME280_humidity;BME280_pressure;Samples;Min_cycle;Max_cycle;Signal;HPM_P1;HPM_P2
2023/04/25 00:00:23;;;;;;;2.95;1.90;;;;;;;10.56;63.17;100041.66;4129742;28;20049;-67
2023/04/25 00:02:26;;;;;;;2.78;2.20;;;;;;;10.61;63.66;100043.38;4119633;28;20143;-67
2023/04/25 00:04:29;;;;;;;3.45;2.30;;;;;;;10.61;63.13;100038.19;4124111;28;20046;-68
2023/04/25 00:06:35;;;;;;;3.35;2.50;;;;;;;10.63;63.90;100046.00;4121616;28;20520;-68
2023/04/25 00:08:38;;;;;;;4.43;2.60;;;;;;;10.61;63.43;100040.78;4124054;28;20038;-67
2023/04/25 00:10:45;;;;;;;4.20;2.50;;;;;;;10.55;63.35;100038.16;4128905;28;20467;-67
2023/04/25 00:12:49;;;;;;;3.92;2.38;;;;;;;10.54;63.09;100036.44;4126019;28;20088;-68
2023/04/25 00:14:52;;;;;;;2.90;2.00;;;;;;;10.57;63.36;100043.38;4128331;28;20038;-67
2023/04/25 00:16:55;;;;;;;3.60;2.65;;;;;;;10.61;64.96;100046.00;4130923;28;20042;-68
2023/04/25 00:18:58;;;;;;;3.95;2.63;;;;;;;10.64;64.69;100040.84;4123133;28;20038;-68
2023/04/25 00:21:02;;;;;;;3.50;2.70;;;;;;;10.70;65.42;100036.53;4130750;28;20035;-68
2023/04/25 00:23:05;;;;;;;3.40;2.33;;;;;;;10.71;65.55;100039.13;4125073;28;20592;-67
2023/04/25 00:25:09;;;;;;;3.80;2.53;;;;;;;10.75;65.80;100043.50;4119000;28;20042;-67
2023/04/25 00:27:13;;;;;;;3.67;2.42;;;;;;;10.76;65.82;100034.84;4125009;28;20034;-68
2023/04/25 00:29:16;;;;;;;4.65;2.95;;;;;;;10.77;65.69;100040.91;4126415;28;20043;-67
2023/04/25 00:31:18;;;;;;;4.22;2.55;;;;;;;10.76;65.90;100032.25;4128461;28;20054;-68
2023/04/25 00:33:21;;;;;;;2.72;2.10;;;;;;;10.76;66.51;100032.25;4130177;28;20121;-68
2023/04/25 00:35:24;;;;;;;5.10;2.63;;;;;;;10.77;66.59;100039.16;4129282;28;20042;-68
2023/04/25 00:37:27;;;;;;;3.28;2.40;;;;;;;10.79;67.11;100031.38;4129524;28;20038;-68
2023/04/25 00:39:30;;;;;;;5.15;3.10;;;;;;;10.79;66.43;100036.56;4129941;28;20043;-68
2023/04/25 00:41:33;;;;;;;3.70;2.60;;;;;;;10.77;67.39;100035.72;4123231;28;20547;-68
2023/04/25 00:43:38;;;;;;;5.43;2.65;;;;;;;10.73;67.26;100031.34;4111239;28;20038;-68
2023/04/25 00:45:41;;;;;;;3.00;2.58;;;;;;;10.72;66.35;100032.19;4110541;28;20042;-68
2023/04/25 00:47:45;;;;;;;3.45;2.20;;;;;;;10.70;66.89;100027.00;4119415;28;20045;-68
2023/04/25 00:49:48;;;;;;;3.17;2.50;;;;;;;10.71;66.90;100023.53;4121478;28;20476;-68
2023/04/25 00:51:51;;;;;;;3.30;2.65;;;;;;;10.72;67.03;100025.28;4127717;28;20336;-68
2023/04/25 00:53:54;;;;;;;2.67;2.00;;;;;;;10.72;67.27;100025.28;4136551;28;20045;-68
2023/04/25 00:55:57;;;;;;;4.63;3.00;;;;;;;10.70;67.30;100015.72;4124555;28;20050;-68
2023/04/25 00:58:00;;;;;;;4.63;2.35;;;;;;;10.71;67.14;100020.09;4122886;28;20542;-68
2023/04/25 01:00:07;;;;;;;3.97;2.58;;;;;;;10.74;67.37;100022.69;4121817;28;20039;-68
2023/04/25 01:02:10;;;;;;;3.05;2.35;;;;;;;10.71;66.35;100020.94;4125901;28;20046;-68
2023/04/25 01:04:13;;;;;;;5.78;2.88;;;;;;;10.69;64.70;100017.47;4139853;28;20503;-68
2023/04/25 01:06:17;;;;;;;2.72;2.30;;;;;;;10.68;65.20;100010.53;4126524;28;20074;-68
2023/04/25 01:08:24;;;;;;;3.58;2.80;;;;;;;10.73;66.61;100019.25;4128282;28;20562;-69
2023/04/25 01:10:27;;;;;;;6.45;3.60;;;;;;;10.76;67.13;100011.44;4108134;28;20047;-68
2023/04/25 01:12:30;;;;;;;4.65;3.42;;;;;;;10.77;67.51;100018.38;4128101;28;20504;-69
2023/04/25 01:14:33;;;;;;;5.30;2.95;;;;;;;10.79;67.46;100010.56;4123753;28;20045;-69
2023/04/25 01:16:38;;;;;;;3.40;2.30;;;;;;;10.77;67.45;100012.31;4127906;28;20048;-69
2023/04/25 01:18:42;;;;;;;4.82;3.08;;;;;;;10.76;67.37;100011.44;4129665;28;20409;-68
2023/04/25 01:20:47;;;;;;;3.72;2.88;;;;;;;10.76;67.39;100008.84;4126332;28;20069;-69
2023/04/25 01:22:52;;;;;;;3.70;2.90;;;;;;;10.77;67.61;100007.09;4122823;28;20058;-69
2023/04/25 01:24:55;;;;;;;5.05;3.15;;;;;;;10.74;67.43;100005.34;4125834;28;20459;-69
2023/04/25 01:27:00;;;;;;;3.47;2.63;;;;;;;10.76;67.56;100001.06;4124161;28;20046;-69
2023/04/25 01:29:04;;;;;;;4.18;3.15;;;;;;;10.76;67.00;100005.38;4127969;28;20448;-69
2023/04/25 01:31:08;;;;;;;5.75;3.42;;;;;;;10.74;67.06;100000.16;4126956;28;20066;-69
2023/04/25 01:33:12;;;;;;;3.78;2.60;;;;;;;10.75;67.75;100004.50;4126336;28;20446;-69
2023/04/25 01:35:15;;;;;;;4.68;3.30;;;;;;;10.73;67.92;100001.03;4122237;28;20086;-69
2023/04/25 01:37:18;;;;;;;4.00;2.83;;;;;;;10.70;67.41;100001.00;4119803;28;20519;-70
2023/04/25 01:39:22;;;;;;;4.72;3.30;;;;;;;10.77;66.66;100005.38;4123832;28;20039;-70
2023/04/25 01:41:25;;;;;;;5.25;3.00;;;;;;;10.72;66.72;100001.00;4111683;28;20039;-69
2023/04/25 01:43:28;;;;;;;4.80;3.17;;;;;;;10.71;67.07;100007.09;4126158;28;20048;-69
2023/04/25 01:45:32;;;;;;;5.68;4.03;;;;;;;10.72;66.77;100008.78;4118937;28;20057;-67
2023/04/25 01:47:35;;;;;;;4.05;3.17;;;;;;;10.70;66.99;100014.00;4120322;28;21201;-67
2023/04/25 01:49:38;;;;;;;4.07;2.92;;;;;;;10.70;66.33;100016.59;4125643;28;20034;-67
2023/04/25 01:51:42;;;;;;;6.13;3.10;;;;;;;10.71;66.15;100015.75;4125620;28;20416;-67
2023/04/25 01:53:45;;;;;;;6.70;4.18;;;;;;;10.66;67.46;100020.06;4124114;28;20501;-68
2023/04/25 01:55:50;;;;;;;9.77;3.73;;;;;;;10.60;68.39;100022.59;4125218;28;20039;-67
2023/04/25 01:57:55;;;;;;;9.25;4.03;;;;;;;10.56;69.14;100023.44;4129825;28;20067;-68
2023/04/25 02:00:10;;;;;;;8.18;4.20;;;;;;;10.53;69.84;100026.88;4127428;28;20042;-67
2023/04/25 02:02:15;;;;;;;9.10;6.18;;;;;;;10.48;68.67;100024.25;4129097;28;20043;-67
2023/04/25 02:04:19;;;;;;;7.82;5.68;;;;;;;10.41;69.47;100022.47;4127986;28;20039;-67
2023/04/25 02:06:22;;;;;;;7.32;4.45;;;;;;;10.35;69.79;100019.81;4144584;28;20052;-67
2023/04/25 02:08:27;;;;;;;7.47;5.47;;;;;;;10.37;69.72;100017.25;4124315;28;20137;-67
2023/04/25 02:10:31;;;;;;;7.38;5.30;;;;;;;10.34;70.07;100020.69;4120510;28;20039;-67
2023/04/25 02:12:54;;;;;;;8.38;6.00;;;;;;;10.35;70.54;100018.94;4125104;28;20575;-67
2023/04/25 02:15:09;;;;;;;9.98;5.47;;;;;;;10.33;71.25;100016.31;4129793;28;20125;-68
2023/04/25 02:17:17;;;;;;;9.25;5.85;;;;;;;10.31;71.53;100015.44;4136959;28;20046;-67
2023/04/25 02:19:20;;;;;;;9.75;6.57;;;;;;;10.28;71.73;100018.88;4128396;28;20042;-67
2023/04/25 02:21:23;;;;;;;8.07;5.70;;;;;;;10.29;72.53;100014.53;4125800;28;20125;-67
2023/04/25 02:23:26;;;;;;;10.18;6.65;;;;;;;10.30;72.31;100021.47;4146279;28;20124;-67
2023/04/25 02:25:30;;;;;;;9.88;7.93;;;;;;;10.30;72.11;100021.47;4128201;28;20034;-67
2023/04/25 02:27:34;;;;;;;9.75;7.55;;;;;;;10.25;72.14;100011.06;4108358;28;20520;-68
2023/04/25 02:29:38;;;;;;;11.45;7.47;;;;;;;10.26;71.92;100011.91;4131139;28;20434;-67
2023/04/25 02:31:42;;;;;;;10.13;7.78;;;;;;;10.23;72.39;100014.50;4129414;28;20534;-67
2023/04/25 02:33:45;;;;;;;11.05;7.63;;;;;;;10.24;72.80;100005.84;4123827;28;20089;-67
2023/04/25 02:35:48;;;;;;;11.30;8.65;;;;;;;10.20;72.60;100009.28;4124126;28;20035;-67
2023/04/25 02:37:51;;;;;;;11.93;7.53;;;;;;;10.20;72.62;100004.06;4129143;28;20565;-68
2023/04/25 02:39:54;;;;;;;9.70;8.68;;;;;;;10.21;72.78;100011.03;4125357;28;20037;-67
2023/04/25 02:41:57;;;;;;;12.25;8.07;;;;;;;10.21;72.92;100006.69;4105826;28;20054;-68
2023/04/25 02:44:00;;;;;;;11.75;7.30;;;;;;;10.19;72.59;100011.00;4119256;28;20042;-67
2023/04/25 02:46:04;;;;;;;9.82;7.22;;;;;;;10.16;73.53;100008.34;4127444;28;20145;-67
2023/04/25 02:48:07;;;;;;;9.23;7.45;;;;;;;10.19;72.75;100007.53;4128496;28;20408;-67
2023/04/25 02:50:11;;;;;;;8.18;6.25;;;;;;;10.16;73.67;100003.16;4126156;28;20516;-67
2023/04/25 02:52:15;;;;;;;;;;;;;;;10.07;74.21;100006.56;4131373;28;20121;-67
2023/04/25 02:54:20;;;;;;;9.95;7.22;;;;;;;10.07;73.96;100006.56;4131062;28;19960;-67
2023/04/25 02:56:25;;;;;;;10.80;7.25;;;;;;;10.09;73.50;100007.44;4117928;28;20049;-67
2023/04/25 02:58:28;;;;;;;11.95;7.22;;;;;;;10.11;73.80;100010.06;4128340;28;20046;-67
2023/04/25 03:00:31;;;;;;;10.05;7.72;;;;;;;10.13;73.85;100006.63;4127546;28;20040;-67
2023/04/25 03:02:36;;;;;;;10.85;8.18;;;;;;;10.16;73.24;100002.31;4106461;28;20138;-67
2023/04/25 03:04:39;;;;;;;12.05;8.75;;;;;;;10.11;73.53;100000.53;4130675;28;20500;-67
2023/04/25 03:06:42;;;;;;;11.75;9.25;;;;;;;10.05;72.80;99999.63;4124824;28;20089;-67
2023/04/25 03:08:45;;;;;;;11.48;8.50;;;;;;;10.07;73.04;99995.31;4138980;28;20045;-67
2023/04/25 03:10:50;;;;;;;11.98;10.05;;;;;;;10.08;73.58;99990.13;4122985;28;20567;-67
2023/04/25 03:12:52;;;;;;;11.85;9.65;;;;;;;10.08;73.50;99995.31;4121699;28;20049;-67
2023/04/25 03:14:55;;;;;;;12.52;10.05;;;;;;;10.05;73.97;99999.63;4129370;28;20089;-69
2023/04/25 03:16:58;;;;;;;10.82;7.75;;;;;;;10.05;73.14;99995.28;4123211;28;20069;-67
2023/04/25 03:19:03;;;;;;;10.93;8.70;;;;;;;10.02;73.33;100000.47;4118338;28;20455;-68
2023/04/25 03:21:05;;;;;;;11.60;9.00;;;;;;;10.00;73.17;99988.31;4118831;28;20034;-68
2023/04/25 03:23:08;;;;;;;10.95;8.35;;;;;;;9.97;73.75;99981.34;4129972;28;20042;-67
2023/04/25 03:25:12;;;;;;;12.55;9.48;;;;;;;9.99;73.27;99991.75;4110860;28;20491;-68
2023/04/25 03:27:16;;;;;;;13.82;8.80;;;;;;;9.95;72.93;99991.72;4125538;28;20057;-68
2023/04/25 03:29:18;;;;;;;10.43;8.23;;;;;;;9.90;73.07;99988.25;4130268;28;20070;-68
2023/04/25 03:31:22;;;;;;;12.07;10.30;;;;;;;9.90;73.17;99995.13;4114747;28;20043;-69
2023/04/25 03:33:25;;;;;;;11.68;9.20;;;;;;;9.91;73.71;99994.28;4127031;28;20047;-68
2023/04/25 03:35:29;;;;;;;15.35;8.70;;;;;;;9.90;73.67;99987.34;4130845;28;20080;-68
2023/04/25 03:37:32;;;;;;;10.60;8.45;;;;;;;9.94;73.60;99986.53;4129477;28;20041;-68
2023/04/25 03:39:35;;;;;;;16.52;9.73;;;;;;;9.95;73.95;99978.75;4129570;28;20500;-68
2023/04/25 03:41:38;;;;;;;11.88;8.43;;;;;;;9.86;73.47;99989.06;4129710;28;20035;-68
2023/04/25 03:43:48;;;;;;;13.38;10.55;;;;;;;9.88;74.06;99987.34;4126699;28;20497;-69
2023/04/25 03:45:52;;;;;;;12.18;9.40;;;;;;;9.91;74.35;99982.16;4129099;28;20042;-69
2023/04/25 03:47:57;;;;;;;12.52;9.10;;;;;;;9.93;74.17;99988.25;4140376;28;20065;-68
2023/04/25 03:50:02;;;;;;;13.05;10.00;;;;;;;9.94;74.00;99994.31;4127711;28;20050;-68
2023/04/25 03:52:07;;;;;;;11.68;9.23;;;;;;;9.92;74.11;99993.44;4122441;28;20065;-68
2023/04/25 03:54:13;;;;;;;12.35;9.15;;;;;;;9.93;74.09;99990.00;4106764;28;20541;-68
2023/04/25 03:56:42;;;;;;;10.30;9.15;;;;;;;9.95;73.81;99999.53;4119419;28;20117;-68
2023/04/25 03:58:53;;;;;;;11.07;8.85;;;;;;;9.98;73.88;100003.03;4123544;28;20074;-68
2023/04/25 04:00:59;;;;;;;12.75;9.15;;;;;;;9.98;73.89;100001.28;4108774;28;20094;-68
2023/04/25 04:03:02;;;;;;;9.85;8.35;;;;;;;9.98;74.10;99998.69;4128406;28;20050;-68
2023/04/25 04:05:06;;;;;;;14.43;11.30;;;;;;;9.99;74.02;99992.66;4135894;28;20045;-68
2023/04/25 04:07:14;;;;;;;10.00;8.50;;;;;;;9.95;74.56;99994.31;4122666;28;20053;-68
2023/04/25 04:09:20;;;;;;;12.05;8.45;;;;;;;9.93;74.57;99997.78;4117606;28;20089;-68
2023/04/25 04:11:23;;;;;;;10.02;8.18;;;;;;;9.93;74.90;100003.84;4117703;28;20046;-68
2023/04/25 04:13:26;;;;;;;11.50;8.82;;;;;;;9.92;74.48;100006.44;4120307;28;20046;-68
2023/04/25 04:15:32;;;;;;;9.88;8.52;;;;;;;9.89;74.30;100003.81;4131986;28;20073;-68
2023/04/25 04:17:35;;;;;;;11.55;8.27;;;;;;;9.90;74.47;100008.13;4128069;28;20077;-68
2023/04/25 04:19:38;;;;;;;11.30;8.50;;;;;;;9.92;74.56;100009.88;4134157;28;20038;-68
2023/04/25 04:21:46;;;;;;;10.50;8.38;;;;;;;9.93;74.85;100010.78;4135839;28;20074;-68
2023/04/25 04:23:50;;;;;;;11.85;8.57;;;;;;;9.90;73.90;100005.53;4117375;28;20042;-68
2023/04/25 04:25:57;;;;;;;11.35;8.57;;;;;;;9.88;74.51;100012.44;4116933;28;20476;-68
2023/04/25 04:28:20;;;;;;;9.77;7.95;;;;;;;9.88;74.55;100007.25;4129889;28;20133;-68
2023/04/25 04:30:37;;;;;;;9.68;8.38;;;;;;;9.90;74.12;100014.19;4125939;28;20042;-68
2023/04/25 04:32:43;;;;;;;13.85;10.05;;;;;;;9.92;74.51;100014.22;4128904;28;20038;-68
2023/04/25 04:34:47;;;;;;;12.93;9.82;;;;;;;9.93;74.36;100015.97;4129362;28;20042;-68
2023/04/25 04:36:51;;;;;;;15.02;9.20;;;;;;;9.95;74.67;100015.09;4129196;28;20050;-68
2023/04/25 04:38:56;;;;;;;11.65;9.30;;;;;;;9.98;74.89;100018.59;4120683;28;20482;-68
2023/04/25 04:41:10;;;;;;;11.25;9.40;;;;;;;9.95;74.68;100019.44;4113357;28;20058;-68
2023/04/25 04:43:36;;;;;;;12.85;9.52;;;;;;;9.95;74.88;100015.09;4125207;28;20050;-68
2023/04/25 04:45:57;;;;;;;11.77;9.82;;;;;;;9.97;74.62;100012.50;4123938;28;20057;-68
2023/04/25 04:48:14;;;;;;;13.13;10.20;;;;;;;9.98;74.90;100016.88;4103861;28;20133;-68
2023/04/25 04:50:45;;;;;;;11.98;9.63;;;;;;;9.97;74.89;100028.09;4121776;28;20122;-67
2023/04/25 04:53:08;;;;;;;8.75;6.82;;;;;;;9.94;75.26;100031.56;4123811;28;20064;-68
2023/04/25 04:55:28;;;;;;;9.98;7.25;;;;;;;9.94;75.03;100033.25;4126771;28;20034;-67
2023/04/25 04:57:47;;;;;;;8.68;6.70;;;;;;;9.89;74.73;100037.56;4145366;28;20091;-67
2023/04/25 05:00:10;;;;;;;8.40;6.45;;;;;;;9.89;74.12;100034.97;4121291;28;20147;-67
2023/04/25 05:02:26;;;;;;;10.50;7.93;;;;;;;9.88;73.91;100038.41;4150565;22;20073;-68
2023/04/25 05:04:51;;;;;;;9.18;7.22;;;;;;;9.91;74.20;100043.63;4129879;28;20562;-70
2023/04/25 05:07:26;;;;;;;9.05;7.15;;;;;;;9.86;74.10;100043.59;4139039;28;20034;-70
2023/04/25 05:09:39;;;;;;;9.23;7.20;;;;;;;9.91;73.84;100041.88;4140303;28;20125;-68
2023/04/25 05:12:07;;;;;;;10.70;6.75;;;;;;;9.89;74.31;100041.00;4128924;28;20041;-68
2023/04/25 05:14:30;;;;;;;9.02;7.75;;;;;;;9.86;73.55;100045.31;4136404;28;20057;-68
2023/04/25 05:17:06;;;;;;;9.43;7.55;;;;;;;9.74;73.85;100046.91;4126413;28;20034;-67
2023/04/25 05:19:21;;;;;;;10.63;7.15;;;;;;;9.77;73.96;100036.56;4138933;28;20558;-68
2023/04/25 05:21:42;;;;;;;8.75;7.35;;;;;;;9.64;73.61;100037.28;4157828;28;20055;-68
2023/04/25 05:24:00;;;;;;;10.40;7.72;;;;;;;9.67;73.37;100044.25;4138711;28;20046;-68
2023/04/25 05:26:30;;;;;;;10.10;7.30;;;;;;;9.70;74.09;100049.47;4149938;28;20096;-68
2023/04/25 05:28:48;;;;;;;8.68;7.22;;;;;;;9.76;73.97;100044.34;4143603;28;20042;-68
2023/04/25 05:31:10;;;;;;;9.25;7.18;;;;;;;9.79;74.00;100042.63;4145730;28;20376;-68
2023/04/25 05:33:36;;;;;;;10.93;8.27;;;;;;;9.86;73.26;100043.59;4134228;28;20057;-68
2023/04/25 05:35:39;;;;;;;9.38;7.40;;;;;;;9.91;73.50;100046.22;4128402;28;20042;-68
2023/04/25 05:37:42;;;;;;;9.43;7.35;;;;;;;9.98;73.26;100040.22;4134355;28;20041;-68
2023/04/25 05:39:48;;;;;;;11.18;7.53;;;;;;;10.01;73.83;100048.06;4127936;28;20042;-68
2023/04/25 05:42:10;;;;;;;11.27;7.68;;;;;;;10.02;73.64;100052.41;4124825;28;20041;-68
2023/04/25 05:44:23;;;;;;;12.23;8.63;;;;;;;10.06;73.44;100054.19;4141758;28;20132;-69
2023/04/25 05:46:49;;;;;;;15.32;9.32;;;;;;;10.09;72.32;100061.09;4137644;28;20046;-70
2023/04/25 05:49:11;;;;;;;13.65;9.88;;;;;;;10.09;72.23;100056.81;4146542;28;20558;-70
2023/04/25 05:51:36;;;;;;;11.15;9.40;;;;;;;10.13;71.27;100057.69;4124646;28;20538;-70
2023/04/25 05:53:54;;;;;;;14.27;9.63;;;;;;;10.14;71.54;100064.63;4140233;28;20042;-69
2023/04/25 05:55:57;;;;;;;12.35;8.85;;;;;;;10.15;70.25;100066.38;4120124;28;20150;-70
2023/04/25 05:58:02;;;;;;;10.60;8.40;;;;;;;10.13;70.36;100066.38;4129215;28;20085;-70
2023/04/25 06:00:09;;;;;;;12.73;9.95;;;;;;;10.14;71.01;100062.88;4128634;28;20072;-70
2023/04/25 06:02:20;;;;;;;11.65;9.50;;;;;;;10.07;71.17;100066.28;4123241;28;20038;-70
2023/04/25 06:04:24;;;;;;;12.38;9.60;;;;;;;10.14;70.93;100068.09;4135455;28;20104;-70
2023/04/25 06:06:30;;;;;;;11.48;9.82;;;;;;;10.04;71.90;100066.25;4135778;28;20042;-69
2023/04/25 06:08:34;;;;;;;11.27;9.02;;;;;;;10.08;71.43;100072.38;4141395;28;20092;-69
2023/04/25 06:10:38;;;;;;;11.27;9.07;;;;;;;9.95;71.88;100060.97;4138022;28;20030;-69
2023/04/25 06:12:41;;;;;;;14.10;9.32;;;;;;;9.99;72.34;100073.16;4131048;28;20053;-69
2023/04/25 06:14:47;;;;;;;12.57;9.60;;;;;;;10.06;71.12;100067.16;4133372;28;20038;-68
2023/04/25 06:16:51;;;;;;;12.02;9.75;;;;;;;10.01;72.23;100076.63;4129016;28;20404;-70
2023/04/25 06:18:54;;;;;;;11.90;8.45;;;;;;;10.07;70.89;100076.66;4142253;28;20100;-68
2023/04/25 06:20:57;;;;;;;12.80;8.68;;;;;;;10.35;68.69;100076.09;4123210;28;20050;-68
2023/04/25 06:23:01;;;;;;;13.32;8.95;;;;;;;10.12;69.14;100076.75;4107154;28;20097;-67
2023/04/25 06:25:21;;;;;;;12.27;7.90;;;;;;;10.14;67.77;100075.03;4107541;28;20043;-68
2023/04/25 06:27:24;;;;;;;10.65;8.60;;;;;;;10.10;68.22;100073.25;4131228;28;20038;-68
2023/04/25 06:29:27;;;;;;;11.45;8.82;;;;;;;10.12;68.77;100077.59;4119929;28;20039;-67
2023/04/25 06:31:32;;;;;;;13.73;9.45;;;;;;;10.00;69.46;100082.66;4132773;28;20062;-68
2023/04/25 06:33:36;;;;;;;12.38;9.90;;;;;;;10.00;68.65;100084.41;4135245;28;20038;-68
2023/04/25 06:35:39;;;;;;;12.63;9.75;;;;;;;9.89;68.70;100081.69;4117838;28;20078;-69
2023/04/25 06:37:46;;;;;;;12.93;10.05;;;;;;;9.78;68.82;100087.66;4124887;28;20129;-68
2023/04/25 06:39:48;;;;;;;16.52;10.05;;;;;;;9.75;69.48;100086.72;4113848;28;20078;-68
2023/04/25 06:41:52;;;;;;;13.65;9.30;;;;;;;9.89;68.45;100086.88;4145823;28;20038;-71
2023/04/25 06:44:25;;;;;;;12.15;8.90;;;;;;;9.62;69.88;100088.28;4136537;28;20065;-72
2023/04/25 06:46:28;;;;;;;;;;;;;;;9.61;69.80;100091.75;4119953;28;20485;-72
2023/04/25 06:48:33;;;;;;;11.23;8.13;;;;;;;9.85;67.98;100085.09;4114609;28;19926;-71
2023/04/25 06:50:37;;;;;;;16.02;8.57;;;;;;;9.68;66.51;100095.28;4115027;28;20130;-72
2023/04/25 06:52:40;;;;;;;15.80;9.02;;;;;;;9.55;66.12;100102.03;4143712;28;20046;-73
2023/04/25 06:54:43;;;;;;;15.57;9.57;;;;;;;9.66;66.37;100109.97;4140233;28;20053;-72
2023/04/25 06:57:09;;;;;;;16.58;8.98;;;;;;;9.64;64.90;100101.28;4131530;28;20042;-72
2023/04/25 06:59:12;;;;;;;15.05;7.72;;;;;;;9.52;65.75;100112.38;4134947;28;20034;-72
2023/04/25 07:01:16;;;;;;;20.90;10.20;;;;;;;9.58;65.43;100112.50;4133229;28;20523;-72
2023/04/25 07:03:19;;;;;;;16.00;8.32;;;;;;;9.61;65.13;100115.13;4118510;28;20046;-72
2023/04/25 07:05:22;;;;;;;14.30;8.52;;;;;;;9.65;65.54;100119.50;4139899;28;20088;-71
2023/04/25 07:07:27;;;;;;;14.48;8.20;;;;;;;9.72;66.65;100121.28;4133730;28;20536;-72
2023/04/25 07:09:33;;;;;;;16.52;10.13;;;;;;;9.88;66.03;100122.34;4134456;28;20100;-71
2023/04/25 07:11:36;;;;;;;19.67;10.63;;;;;;;9.84;65.81;100117.09;4146175;28;20056;-71
2023/04/25 07:13:39;;;;;;;16.40;9.70;;;;;;;9.74;65.74;100130.00;4145589;28;20030;-71
2023/04/25 07:15:42;;;;;;;16.45;9.90;;;;;;;9.69;66.52;100128.19;4149611;28;20529;-71
2023/04/25 07:17:46;;;;;;;22.33;10.27;;;;;;;9.79;66.65;100122.25;4132545;28;20054;-71
2023/04/25 07:19:49;;;;;;;23.08;10.52;;;;;;;9.78;67.10;100117.91;4128269;28;20046;-71
2023/04/25 07:21:52;;;;;;;19.10;10.00;;;;;;;9.69;67.06;100123.84;4121247;28;20097;-71
2023/04/25 07:23:58;;;;;;;18.70;11.07;;;;;;;9.63;67.65;100123.78;4131630;28;20541;-71
2023/04/25 07:26:06;;;;;;;17.83;9.52;;;;;;;9.75;67.53;100120.47;4131894;28;20294;-70
2023/04/25 07:28:09;;;;;;;15.07;10.18;;;;;;;9.70;67.89;100125.59;4132238;28;20046;-71
2023/04/25 07:30:12;;;;;;;19.98;10.65;;;;;;;9.76;67.85;100123.06;4144240;28;20121;-70
2023/04/25 07:32:15;;;;;;;16.98;9.88;;;;;;;9.78;66.61;100126.59;4115172;28;20047;-70
2023/04/25 07:34:18;;;;;;;20.08;9.48;;;;;;;9.77;66.00;100129.16;4132034;28;20039;-70
2023/04/25 07:36:21;;;;;;;21.15;9.32;;;;;;;9.68;65.30;100131.63;4127147;28;20125;-71
2023/04/25 07:38:24;;;;;;;24.88;10.20;;;;;;;9.64;65.16;100133.31;4129502;28;20396;-71
2023/04/25 07:40:28;;;;;;;22.88;10.50;;;;;;;9.58;64.98;100135.84;4120962;28;20066;-71
2023/04/25 07:42:37;;;;;;;20.23;8.48;;;;;;;9.52;65.24;100139.22;4129595;28;20038;-70
2023/04/25 07:44:42;;;;;;;16.23;9.55;;;;;;;9.51;63.53;100134.88;4118056;28;20615;-71
2023/04/25 07:46:46;;;;;;;20.15;8.75;;;;;;;9.45;63.57;100140.00;4129786;28;20046;-70
2023/04/25 07:48:49;;;;;;;21.08;10.30;;;;;;;9.38;64.30;100141.63;4115939;28;20054;-71
2023/04/25 07:50:53;;;;;;;17.02;9.68;;;;;;;9.43;64.94;100141.69;4115795;28;20034;-71
2023/04/25 07:52:56;;;;;;;18.30;9.50;;;;;;;9.62;64.95;100142.78;4127859;28;20419;-70
2023/04/25 07:55:06;;;;;;;17.35;9.63;;;;;;;9.69;63.53;100148.94;4113949;28;20102;-72
2023/04/25 07:57:20;;;;;;;19.50;11.32;;;;;;;9.73;63.62;100155.94;4130232;28;20532;-71
2023/04/25 07:59:24;;;;;;;23.92;12.30;;;;;;;9.84;64.54;100158.66;4132855;28;20173;-72
2023/04/25 08:01:30;;;;;;;19.30;10.27;;;;;;;9.96;62.35;100159.66;4130572;28;20046;-72
2023/04/25 08:03:36;;;;;;;23.17;12.18;;;;;;;9.98;62.29;100164.88;4128394;28;20114;-72
2023/04/25 08:05:45;;;;;;;22.60;10.48;;;;;;;9.89;64.06;100172.56;4129844;28;20475;-72
2023/04/25 08:07:49;;;;;;;20.40;10.93;;;;;;;9.96;63.31;100171.78;4133968;28;20066;-70
2023/04/25 08:09:52;;;;;;;18.20;9.70;;;;;;;10.05;62.07;100169.28;4139576;28;20053;-71
2023/04/25 08:12:03;;;;;;;18.83;9.98;;;;;;;9.90;62.61;100179.50;4131780;28;20450;-70
2023/04/25 08:14:09;;;;;;;;;;;;;;;9.87;62.64;100182.94;4118384;28;20050;-71
2023/04/25 08:16:13;;;;;;;26.85;10.98;;;;;;;9.80;63.53;100186.31;4134620;28;19921;-71
2023/04/25 08:18:16;;;;;;;21.15;9.27;;;;;;;9.95;62.87;100185.63;4117430;28;20092;-71
2023/04/25 08:20:24;;;;;;;17.60;10.00;;;;;;;10.02;62.40;100187.44;4121639;28;20049;-71
2023/04/25 08:22:31;;;;;;;19.13;9.32;;;;;;;10.22;62.24;100197.19;4129499;28;20665;-71
2023/04/25 08:25:01;;;;;;;16.45;8.93;;;;;;;10.15;61.32;100198.84;4131277;28;20484;-71
2023/04/25 08:27:06;;;;;;;21.60;10.77;;;;;;;10.20;60.92;100198.91;4129881;28;20049;-71
2023/04/25 08:29:10;;;;;;;21.70;10.60;;;;;;;10.13;62.07;100206.63;4139935;28;20054;-70
2023/04/25 08:31:16;;;;;;;17.23;8.93;;;;;;;10.12;62.60;100215.28;4120683;28;20126;-71
2023/04/25 08:33:28;;;;;;;16.85;9.57;;;;;;;10.21;61.56;100218.84;4109573;28;20129;-70
2023/04/25 08:35:47;;;;;;;21.52;9.57;;;;;;;10.28;61.17;100220.66;4111652;28;20138;-71
2023/04/25 08:37:51;;;;;;;24.00;10.68;;;;;;;10.43;61.02;100220.84;4136236;28;20050;-70
2023/04/25 08:39:56;;;;;;;20.50;9.47;;;;;;;10.44;60.11;100214.81;4124892;28;20056;-71
2023/04/25 08:42:10;;;;;;;21.37;9.00;;;;;;;10.52;58.70;100208.81;4125455;28;20066;-71
2023/04/25 08:44:16;;;;;;;14.68;8.00;;;;;;;10.53;59.76;100228.72;4110854;28;20306;-71
2023/04/25 08:46:20;;;;;;;14.70;7.40;;;;;;;10.56;57.83;100221.00;4128367;28;20038;-71
2023/04/25 08:48:52;;;;;;;17.65;8.55;;;;;;;10.60;58.70;100222.75;4132841;28;20038;-71
2023/04/25 08:50:59;;;;;;;16.13;8.30;;;;;;;10.61;58.63;100224.50;4141906;28;20054;-70
2023/04/25 08:53:09;;;;;;;19.33;8.77;;;;;;;10.70;57.76;100218.50;4125619;28;20064;-70
2023/04/25 08:55:13;;;;;;;17.77;9.77;;;;;;;10.70;57.52;100224.56;4127468;28;20085;-70
2023/04/25 08:57:17;;;;;;;17.17;9.77;;;;;;;10.61;58.47;100229.69;4121519;28;20042;-70
2023/04/25 08:59:24;;;;;;;18.77;9.48;;;;;;;10.53;59.11;100228.72;4126745;28;20038;-70
2023/04/25 09:01:27;;;;;;;19.08;10.80;;;;;;;10.62;58.21;100223.66;4128100;28;20050;-70
2023/04/25 09:03:31;;;;;;;24.77;9.73;;;;;;;10.71;57.76;100226.34;4119098;28;20050;-71
2023/04/25 09:05:35;;;;;;;17.88;9.45;;;;;;;10.78;57.57;100228.13;4110307;28;20459;-70
2023/04/25 09:07:38;;;;;;;16.70;9.80;;;;;;;10.95;58.04;100232.63;4149345;28;20041;-72
2023/04/25 09:09:43;;;;;;;16.25;8.35;;;;;;;11.09;57.78;100236.22;4127309;28;20038;-71
2023/04/25 09:11:47;;;;;;;15.70;9.13;;;;;;;11.39;56.41;100237.31;4122572;28;20602;-70
2023/04/25 09:13:50;;;;;;;16.73;8.02;;;;;;;11.45;56.25;100239.09;4138075;28;20038;-70
2023/04/25 09:16:17;;;;;;;17.63;9.13;;;;;;;11.33;56.39;100245.97;4125873;28;20484;-70
2023/04/25 09:18:37;;;;;;;21.75;10.55;;;;;;;11.52;55.51;100249.56;4135984;28;20042;-71
2023/04/25 09:20:43;;;;;;;20.93;9.60;;;;;;;11.47;55.51;100247.78;4127425;28;20093;-70
2023/04/25 09:23:06;;;;;;;16.27;8.13;;;;;;;11.34;54.28;100246.81;4135997;28;20048;-71
2023/04/25 09:25:14;;;;;;;14.50;7.70;;;;;;;11.28;55.37;100259.78;4134423;28;20065;-70
2023/04/25 09:27:22;;;;;;;24.48;9.50;;;;;;;11.21;55.84;100258.84;4126250;28;20050;-70
2023/04/25 09:29:31;;;;;;;12.63;7.13;;;;;;;11.21;54.83;100258.00;4134368;28;20046;-70
2023/04/25 09:31:36;;;;;;;18.48;8.70;;;;;;;11.12;55.01;100258.78;4127418;28;20043;-70
2023/04/25 09:33:41;;;;;;;11.60;6.82;;;;;;;11.03;56.56;100253.50;4126137;28;20061;-71
2023/04/25 09:35:45;;;;;;;16.88;7.18;;;;;;;11.18;55.77;100259.72;4139246;28;20037;-70
2023/04/25 09:37:59;;;;;;;19.25;8.70;;;;;;;11.20;56.36;100269.25;4127684;28;20137;-70
2023/04/25 09:40:22;;;;;;;17.40;7.03;;;;;;;11.27;56.28;100274.53;4143325;28;20540;-70
2023/04/25 09:42:43;;;;;;;19.67;7.50;;;;;;;11.48;54.90;100275.56;4123209;28;20039;-70
2023/04/25 09:44:47;;;;;;;16.70;7.47;;;;;;;11.37;54.85;100282.41;4132810;28;20052;-70
2023/04/25 09:46:53;;;;;;;15.38;7.97;;;;;;;11.37;55.64;100285.88;4130762;28;20062;-70
2023/04/25 09:48:59;;;;;;;20.08;8.05;;;;;;;11.33;55.06;100289.31;4128988;28;20052;-70
2023/04/25 09:51:13;;;;;;;13.32;7.35;;;;;;;11.22;56.09;100296.16;4129684;28;20030;-70